Time;durP1;ratioP1;P1;durP2;ratioP2;P2;SDS_P1;SDS_P2;PMS_P1;PMS_P2;Temp;Humidity;BMP_temperature;BMP_pressure;BME280_temperature;BME280_humidity;BME280_pressure;Samples;Min_cycle;Max_cycle;Signal;HPM_P1;HPM_P2
2023/01/17 00:14:44;;;;;;;8.70;6.90;;;;;;;1.28;90.63;96772.56;10221018;29;20043;-81
2023/01/17 01:33:51;;;;;;;7.05;5.72;;;;;;;2.02;85.98;96892.13;10211314;29;20055;-79
2023/01/17 01:38:55;;;;;;;5.40;4.88;;;;;;;1.81;85.99;96896.91;10220435;29;20084;-79
2023/01/17 01:43:58;;;;;;;4.65;3.45;;;;;;;1.81;86.12;96911.00;10221281;29;20043;-80
2023/01/17 01:55:51;;;;;;;7.32;6.63;;;;;;;1.79;87.36;96912.97;10211888;29;20036;-78
2023/01/17 02:00:54;;;;;;;7.78;4.78;;;;;;;1.67;87.50;96922.13;10219473;29;20423;-79
2023/01/17 02:06:04;;;;;;;5.95;4.90;;;;;;;1.58;88.20;96929.16;10222737;29;20082;-80
2023/01/17 02:11:08;;;;;;;8.20;7.28;;;;;;;1.84;88.97;96929.22;10228534;29;20039;-80
2023/01/17 02:16:20;;;;;;;9.40;7.10;;;;;;;1.72;89.50;96949.78;10213035;29;20071;-80
2023/01/17 02:21:24;;;;;;;10.40;7.13;;;;;;;1.54;90.21;96943.69;10213357;29;20071;-80
2023/01/17 02:26:54;;;;;;;9.68;7.10;;;;;;;1.86;89.32;96939.63;10222339;29;20032;-79
2023/01/17 02:32:04;;;;;;;9.60;6.43;;;;;;;1.79;89.44;96952.66;10214204;29;20122;-79
2023/01/17 02:37:15;;;;;;;6.93;5.68;;;;;;;1.92;88.91;96947.81;10235620;29;20028;-81
2023/01/17 02:42:25;;;;;;;8.10;5.55;;;;;;;1.61;89.06;96951.81;10240063;28;20043;-79
2023/01/17 02:47:31;;;;;;;7.60;6.30;;;;;;;2.05;88.67;96952.69;10222712;28;20130;-80
2023/01/17 02:52:50;;;;;;;8.70;5.97;;;;;;;2.02;88.22;96968.06;10219967;29;20048;-80
2023/01/17 02:58:07;;;;;;;8.35;6.05;;;;;;;1.70;89.16;96980.88;10205846;29;20526;-78
2023/01/17 03:03:20;;;;;;;7.10;5.20;;;;;;;1.87;87.39;96992.44;10205128;29;20633;-77
2023/01/17 03:08:24;;;;;;;5.70;4.53;;;;;;;1.73;88.01;97009.66;10210015;29;20448;-78
2023/01/17 03:13:27;;;;;;;4.78;3.42;;;;;;;1.98;85.94;97009.88;10211026;29;20388;-78
2023/01/17 03:18:31;;;;;;;6.10;5.00;;;;;;;1.98;87.24;97020.47;10216983;29;20050;-78
2023/01/17 03:23:33;;;;;;;3.17;2.88;;;;;;;1.52;88.25;97016.22;10209154;29;20036;-78
2023/01/17 03:28:36;;;;;;;3.25;2.47;;;;;;;1.55;88.91;97029.16;10214923;29;20043;-77
2023/01/17 03:33:40;;;;;;;3.78;2.50;;;;;;;1.64;88.05;97038.81;10214177;29;20070;-78
2023/01/17 03:38:43;;;;;;;2.80;1.67;;;;;;;1.32;89.24;97048.06;10207800;29;20100;-78
2023/01/17 03:43:46;;;;;;;1.50;1.25;;;;;;;1.54;89.00;97053.91;10215629;29;20058;-77
2023/01/17 03:48:51;;;;;;;3.08;2.78;;;;;;;1.83;88.31;97054.56;10215160;29;20071;-78
2023/01/17 03:53:54;;;;;;;1.90;1.73;;;;;;;1.13;90.24;97078.06;10205492;29;20043;-77
2023/01/17 03:58:57;;;;;;;2.13;1.40;;;;;;;1.29;89.74;97069.53;10204465;29;20155;-77
2023/01/17 04:04:01;;;;;;;2.13;1.67;;;;;;;1.54;88.44;97088.28;10206585;29;20516;-78
2023/01/17 04:09:04;;;;;;;0.68;0.68;;;;;;;0.91;89.78;97102.22;10208463;29;20380;-79
2023/01/17 04:14:07;;;;;;;0.30;0.30;;;;;;;0.51;90.90;97119.09;10207270;29;20107;-78
2023/01/17 04:19:12;;;;;;;0.20;0.20;;;;;;;0.57;90.12;97121.19;10208597;29;20076;-78
2023/01/17 04:24:15;;;;;;;0.20;0.20;;;;;;;0.72;90.13;97137.44;10204978;29;20040;-77
2023/01/17 04:29:20;;;;;;;0.20;0.20;;;;;;;0.78;90.20;97150.09;10212765;29;20043;-77
2023/01/17 04:34:24;;;;;;;0.20;0.20;;;;;;;0.25;91.39;97163.69;10224929;29;20046;-78
2023/01/17 04:39:27;;;;;;;0.60;0.38;;;;;;;0.27;92.17;97174.97;10225275;29;20107;-80
2023/01/17 04:44:29;;;;;;;0.30;0.30;;;;;;;0.61;90.29;97201.81;10237288;29;20036;-79
2023/01/17 04:49:33;;;;;;;0.25;0.25;;;;;;;0.29;91.70;97205.53;10231271;29;20074;-79
2023/01/17 04:54:36;;;;;;;0.10;0.10;;;;;;;0.58;90.08;97217.94;10217844;23;20578;-79
2023/01/17 04:59:39;;;;;;;1.85;0.28;;;;;;;0.24;89.49;97234.16;10215172;29;20058;-79
2023/01/17 05:04:43;;;;;;;2.17;0.20;;;;;;;0.23;90.51;97226.38;10214984;29;20530;-79
2023/01/17 05:09:46;;;;;;;0.10;0.10;;;;;;;0.15;89.30;97245.53;10211464;29;20044;-79
2023/01/17 05:14:49;;;;;;;0.70;0.17;;;;;;;-0.01;90.46;97258.41;10214587;29;20040;-78
2023/01/17 05:19:53;;;;;;;1.40;0.10;;;;;;;-0.46;91.67;97290.41;10199543;29;20054;-79
2023/01/17 05:24:55;;;;;;;0.32;0.20;;;;;;;0.33;88.94;97303.78;10209777;29;20059;-79
2023/01/17 05:29:58;;;;;;;0.47;0.25;;;;;;;-0.20;89.66;97312.75;10211116;29;20134;-79
2023/01/17 05:35:02;;;;;;;0.30;0.30;;;;;;;0.29;88.64;97319.06;10215685;29;20055;-79
2023/01/17 05:40:08;;;;;;;0.30;0.30;;;;;;;0.07;89.44;97325.38;10207647;29;20077;-79
2023/01/17 05:45:15;;;;;;;0.38;0.38;;;;;;;0.18;89.79;97335.00;10206327;29;20042;-79
2023/01/17 05:50:21;;;;;;;0.40;0.40;;;;;;;0.07;89.07;97332.47;10240365;28;20051;-78
2023/01/17 05:55:26;;;;;;;0.45;0.22;;;;;;;0.17;89.48;97354.47;10227688;28;20047;-79
2023/01/17 06:00:30;;;;;;;1.95;0.60;;;;;;;-0.17;89.34;97365.25;10206607;29;20055;-79
2023/01/17 06:05:34;;;;;;;1.33;0.60;;;;;;;-0.15;89.54;97375.69;10210261;29;20039;-78
2023/01/17 06:10:37;;;;;;;0.88;0.35;;;;;;;-0.27;89.93;97377.56;10207134;29;20051;-79
2023/01/17 06:15:40;;;;;;;1.10;0.80;;;;;;;0.17;89.57;97386.97;10212191;29;20048;-79
2023/01/17 06:20:45;;;;;;;0.82;0.80;;;;;;;0.02;89.47;97384.78;10208157;29;20056;-79
2023/01/17 06:25:48;;;;;;;0.63;0.55;;;;;;;0.09;89.20;97392.06;10203381;29;20040;-79
2023/01/17 06:30:50;;;;;;;2.03;0.80;;;;;;;-0.03;89.88;97406.28;10213996;29;20071;-79
2023/01/17 06:35:55;;;;;;;1.33;0.73;;;;;;;-0.12;90.16;97405.25;10206558;29;20074;-79
2023/01/17 06:40:59;;;;;;;1.90;0.57;;;;;;;0.12;89.80;97407.63;10213167;29;20122;-79
2023/01/17 06:46:02;;;;;;;0.70;0.70;;;;;;;0.13;88.90;97422.50;10209948;29;20052;-79
2023/01/17 06:51:06;;;;;;;5.55;1.67;;;;;;;0.26;88.63;97432.00;10210098;29;20074;-79
2023/01/17 06:56:09;;;;;;;2.55;1.33;;;;;;;0.23;89.09;97434.91;10212345;29;20072;-79
2023/01/17 07:01:12;;;;;;;3.25;1.40;;;;;;;0.05;87.20;97438.13;10213045;29;20078;-78
2023/01/17 07:06:17;;;;;;;2.17;1.50;;;;;;;0.02;87.53;97445.50;10215115;29;20077;-78
2023/01/17 07:11:20;;;;;;;1.42;1.23;;;;;;;0.09;87.64;97449.28;10214741;29;20059;-78
2023/01/17 07:16:22;;;;;;;3.03;1.90;;;;;;;0.38;86.28;97455.56;10213459;29;20076;-78
2023/01/17 07:21:27;;;;;;;7.88;2.15;;;;;;;0.15;86.24;97469.88;10209887;29;20149;-78
2023/01/17 07:26:30;;;;;;;2.45;1.05;;;;;;;0.06;86.87;97473.31;10211264;29;20047;-78
2023/01/17 07:31:35;;;;;;;9.45;2.08;;;;;;;0.28;85.52;97480.25;10217710;29;20036;-78
2023/01/17 07:36:39;;;;;;;2.90;2.13;;;;;;;0.27;85.68;97474.09;10204818;29;20473;-78
2023/01/17 07:41:42;;;;;;;6.93;2.78;;;;;;;0.17;86.06;97497.81;10203997;29;20047;-78
2023/01/17 07:46:46;;;;;;;4.35;2.20;;;;;;;0.08;85.56;97495.09;10200555;29;20044;-78
2023/01/17 07:51:50;;;;;;;8.02;3.10;;;;;;;-0.02;85.70;97502.97;10213150;29;20036;-78
2023/01/17 07:56:53;;;;;;;4.75;2.03;;;;;;;-0.19;84.87;97511.44;10214681;29;20373;-78
2023/01/17 08:01:56;;;;;;;6.07;2.53;;;;;;;0.05;84.11;97504.13;10215017;29;20068;-78
2023/01/17 08:07:01;;;;;;;5.28;2.60;;;;;;;0.21;83.10;97506.31;10215093;29;20058;-77
2023/01/17 08:12:04;;;;;;;5.82;1.80;;;;;;;-0.21;83.90;97514.22;10208190;29;20044;-77
2023/01/17 08:17:11;;;;;;;5.07;2.83;;;;;;;0.21;82.33;97516.03;10210059;29;20067;-76
2023/01/17 08:22:15;;;;;;;13.45;3.10;;;;;;;0.04;83.08;97509.53;10203222;29;20031;-76
2023/01/17 08:27:18;;;;;;;4.60;2.72;;;;;;;0.54;81.34;97515.81;10197950;29;20095;-76
2023/01/17 08:32:22;;;;;;;4.57;2.15;;;;;;;0.34;80.71;97536.00;10213854;29;20179;-76
2023/01/17 08:37:26;;;;;;;7.07;2.20;;;;;;;0.65;79.73;97528.09;10213758;29;20070;-76
2023/01/17 08:42:29;;;;;;;3.88;2.33;;;;;;;0.30;80.39;97536.38;10212283;29;20050;-77
2023/01/17 08:47:32;;;;;;;6.60;2.83;;;;;;;0.44;80.50;97532.56;10212050;29;20421;-77
2023/01/17 08:52:36;;;;;;;3.35;2.17;;;;;;;0.45;80.29;97536.91;10213108;29;20035;-75
2023/01/17 08:57:39;;;;;;;3.55;2.17;;;;;;;-0.03;82.03;97543.50;10213027;29;20046;-77
2023/01/17 09:02:42;;;;;;;8.00;2.33;;;;;;;0.32;80.61;97550.28;10212856;29;20039;-77
2023/01/17 09:07:46;;;;;;;2.35;1.58;;;;;;;0.05;81.61;97548.97;10202046;29;20051;-77
2023/01/17 09:12:49;;;;;;;6.65;2.92;;;;;;;0.13;81.54;97559.75;10210316;29;20071;-76
2023/01/17 09:17:55;;;;;;;4.03;2.70;;;;;;;0.49;80.88;97564.72;10206690;29;20051;-75
2023/01/17 09:23:02;;;;;;;3.22;2.10;;;;;;;0.56;79.13;97565.88;10176167;29;20119;-76
2023/01/17 09:28:04;;;;;;;7.85;2.67;;;;;;;0.41;79.35;97577.72;10221809;29;20531;-76
2023/01/17 09:33:08;;;;;;;5.88;2.25;;;;;;;-0.02;80.05;97592.69;10197979;29;20047;-77
2023/01/17 09:38:13;;;;;;;9.60;2.28;;;;;;;0.46;78.73;97576.38;10194687;29;20080;-78
2023/01/17 09:43:23;;;;;;;7.75;2.10;;;;;;;0.16;78.66;97600.88;10190762;29;20153;-75
2023/01/17 09:48:36;;;;;;;14.43;3.25;;;;;;;0.43;79.07;97589.00;10190154;29;20048;-76
2023/01/17 09:53:42;;;;;;;10.00;3.03;;;;;;;0.54;78.37;97581.00;10187011;29;20044;-75
2023/01/17 09:58:54;;;;;;;5.80;2.35;;;;;;;0.92;77.31;97603.34;10173095;29;20056;-76
2023/01/17 10:04:09;;;;;;;2.47;2.20;;;;;;;1.51;74.88;97607.91;10197337;29;20071;-75
2023/01/17 10:09:45;;;;;;;9.35;3.15;;;;;;;1.36;74.46;97614.53;10207010;29;20071;-75
2023/01/17 10:15:22;;;;;;;8.75;2.90;;;;;;;1.66;72.84;97624.25;10201297;29;20060;-77
2023/01/17 10:20:44;;;;;;;6.80;3.50;;;;;;;1.29;74.98;97619.53;10184984;29;20153;-77
2023/01/17 10:25:50;;;;;;;10.60;3.88;;;;;;;1.71;74.31;97627.31;10205287;29;20066;-77
2023/01/17 10:30:57;;;;;;;7.88;2.63;;;;;;;1.32;74.91;97636.91;10203680;29;20035;-77
2023/01/17 10:36:05;;;;;;;8.40;3.25;;;;;;;1.27;74.59;97618.81;10202645;29;20119;-76
2023/01/17 10:41:18;;;;;;;6.00;2.47;;;;;;;0.81;74.28;97615.66;10193805;29;20040;-77
2023/01/17 10:46:22;;;;;;;;;;;;;;;0.97;74.53;97630.22;10187752;29;20071;-75
2023/01/17 10:51:43;;;;;;;9.40;4.47;;;;;;;1.20;74.80;97634.34;10187638;29;19922;-78
2023/01/17 10:56:47;;;;;;;10.30;5.13;;;;;;;0.95;75.94;97627.69;10206954;23;20433;-77
2023/01/17 11:01:50;;;;;;;7.40;4.60;;;;;;;0.96;72.87;97626.75;10168842;29;20054;-77
2023/01/17 11:07:11;;;;;;;5.70;3.70;;;;;;;1.32;71.79;97621.91;10168801;29;20058;-77
2023/01/17 11:12:23;;;;;;;5.20;3.90;;;;;;;2.20;69.86;97615.00;10164945;29;20055;-77
2023/01/17 11:17:28;;;;;;;8.55;4.80;;;;;;;1.73;69.83;97631.50;10164936;29;20048;-76
2023/01/17 11:22:32;;;;;;;7.22;3.08;;;;;;;1.59;71.42;97601.94;10169888;29;21300;-77
2023/01/17 11:27:38;;;;;;;5.95;3.17;;;;;;;1.79;69.21;97618.72;10163666;29;20186;-77
2023/01/17 11:32:51;;;;;;;10.52;4.72;;;;;;;2.26;68.43;97603.00;10166116;29;20574;-78
2023/01/17 11:38:03;;;;;;;6.68;4.50;;;;;;;2.55;67.70;97616.25;10169529;29;20059;-77
2023/01/17 11:43:21;;;;;;;7.07;5.17;;;;;;;1.89;70.50;97611.59;10160916;29;20052;-76
2023/01/17 11:48:24;;;;;;;7.60;4.13;;;;;;;3.10;64.72;97610.28;10167008;29;20055;-77
2023/01/17 11:53:30;;;;;;;11.23;6.07;;;;;;;3.27;66.56;97613.00;10171637;29;20052;-78
2023/01/17 11:58:37;;;;;;;6.35;5.13;;;;;;;1.77;69.44;97628.59;10169509;29;20753;-76
2023/01/17 12:09:21;;;;;;;13.77;5.97;;;;;;;4.27;62.86;97605.16;10876108;23;20048;-77
2023/01/17 12:14:34;;;;;;;8.63;5.93;;;;;;;3.86;63.08;97610.06;10207980;29;20479;-78
2023/01/17 12:19:44;;;;;;;;;;;;;;;3.26;65.36;97608.72;10223885;23;20070;-78
2023/01/17 12:25:02;;;;;;;9.38;8.05;;;;;;;3.65;64.36;97605.03;10210538;29;19979;-77
2023/01/17 12:30:29;;;;;;;13.73;7.55;;;;;;;3.82;62.22;97601.56;10213624;29;20051;-77
2023/01/17 12:35:38;;;;;;;13.55;8.07;;;;;;;2.61;67.07;97602.44;10208195;29;20099;-77
2023/01/17 12:40:48;;;;;;;15.52;8.48;;;;;;;2.20;67.96;97609.69;10211255;29;20049;-78
2023/01/17 12:45:54;;;;;;;13.25;7.55;;;;;;;1.75;69.27;97623.41;10212015;29;20040;-76
2023/01/17 12:51:02;;;;;;;12.43;6.85;;;;;;;2.04;68.49;97628.78;10211652;29;20051;-77
2023/01/17 12:56:11;;;;;;;12.00;6.32;;;;;;;3.25;63.80;97619.44;10208815;29;20455;-76
2023/01/17 13:01:23;;;;;;;14.05;8.40;;;;;;;3.76;62.43;97623.41;10185281;29;20043;-77
2023/01/17 13:06:31;;;;;;;14.02;7.68;;;;;;;4.25;59.75;97626.59;10170332;29;20058;-75
2023/01/17 13:11:42;;;;;;;13.88;6.70;;;;;;;4.17;58.29;97613.22;10175979;29;20047;-77
2023/01/17 13:16:55;;;;;;;14.95;6.95;;;;;;;3.84;60.58;97622.66;10171514;29;20083;-77
2023/01/17 13:22:00;;;;;;;18.55;9.75;;;;;;;3.52;60.77;97625.78;10172354;29;20179;-77
2023/01/17 13:27:21;;;;;;;15.23;9.18;;;;;;;2.73;63.94;97635.75;10165441;29;20055;-78
2023/01/17 13:32:48;;;;;;;18.33;10.38;;;;;;;2.74;64.30;97634.81;10161828;29;20151;-78
2023/01/17 13:38:12;;;;;;;16.77;8.45;;;;;;;2.64;65.38;97636.63;10168182;29;20138;-77
2023/01/17 13:43:22;;;;;;;23.67;9.93;;;;;;;2.34;66.80;97649.00;10150271;29;20190;-78
2023/01/17 13:48:29;;;;;;;18.23;10.27;;;;;;;2.42;67.08;97645.66;10167967;29;20043;-77
2023/01/17 13:53:57;;;;;;;18.52;10.48;;;;;;;2.90;65.61;97651.91;10169060;29;20059;-77
2023/01/17 13:59:29;;;;;;;25.85;11.10;;;;;;;3.12;65.37;97656.88;10182196;29;20150;-78
2023/01/17 14:05:09;;;;;;;20.30;11.43;;;;;;;3.21;64.20;97652.53;10155915;29;20060;-76
2023/01/17 14:10:32;;;;;;;23.88;10.68;;;;;;;3.05;63.80;97654.00;10153125;29;20059;-77
2023/01/17 14:15:48;;;;;;;18.92;9.43;;;;;;;3.20;63.16;97658.84;10164581;29;20047;-75
2023/01/17 14:21:06;;;;;;;18.00;10.07;;;;;;;3.32;62.51;97652.38;10167090;29;20050;-76
2023/01/17 14:26:19;;;;;;;24.02;11.43;;;;;;;3.59;62.03;97640.09;10169265;29;20082;-76
2023/01/17 14:31:23;;;;;;;22.58;10.20;;;;;;;3.48;61.80;97643.78;10140193;29;20112;-76
2023/01/17 14:36:32;;;;;;;22.52;10.48;;;;;;;3.06;62.73;97639.75;10154135;29;20043;-76
2023/01/17 14:41:35;;;;;;;17.95;10.70;;;;;;;3.31;62.38;97645.38;10157124;29;20471;-75
2023/01/17 14:46:38;;;;;;;19.98;10.32;;;;;;;3.56;61.38;97629.78;10157002;29;20065;-77
2023/01/17 14:51:42;;;;;;;22.00;9.85;;;;;;;3.36;61.61;97634.34;10155356;29;20056;-78
2023/01/17 14:56:46;;;;;;;21.05;11.30;;;;;;;3.05;63.15;97639.91;10161471;29;20082;-76
2023/01/17 15:01:52;;;;;;;16.42;9.75;;;;;;;2.68;63.61;97643.28;10164845;29;20077;-75
2023/01/17 15:07:15;;;;;;;18.08;10.63;;;;;;;2.72;64.09;97649.19;10162332;29;20052;-76
2023/01/17 15:12:18;;;;;;;21.17;10.25;;;;;;;2.70;64.39;97645.81;10157859;29;20459;-77
2023/01/17 15:17:23;;;;;;;20.90;10.45;;;;;;;2.84;63.23;97646.19;10168444;29;20048;-77
2023/01/17 15:22:28;;;;;;;18.60;9.73;;;;;;;2.46;63.86;97656.81;10165126;29;20477;-77
2023/01/17 15:27:32;;;;;;;17.23;10.32;;;;;;;2.39;64.31;97653.91;10161869;29;20586;-77
2023/01/17 15:32:36;;;;;;;21.55;11.00;;;;;;;2.25;64.76;97660.44;10171936;29;20106;-75
2023/01/17 15:37:41;;;;;;;22.75;10.52;;;;;;;2.13;65.20;97659.72;10160770;29;20047;-75
2023/01/17 15:42:47;;;;;;;21.85;11.30;;;;;;;2.02;65.71;97659.84;10167182;29;20056;-76
2023/01/17 15:47:50;;;;;;;22.17;10.35;;;;;;;1.94;65.66;97668.44;10159764;29;20055;-77
2023/01/17 15:52:56;;;;;;;23.02;11.52;;;;;;;1.81;65.49;97673.19;10165297;29;20142;-77
2023/01/17 15:58:00;;;;;;;22.70;10.80;;;;;;;1.76;65.60;97671.91;10177919;29;20086;-77
2023/01/17 16:03:20;;;;;;;25.38;11.38;;;;;;;1.71;65.95;97675.78;10168747;29;20134;-77
2023/01/17 16:08:27;;;;;;;23.10;10.25;;;;;;;1.68;65.95;97685.81;10174820;29;20056;-77
2023/01/17 16:13:31;;;;;;;24.40;10.52;;;;;;;1.61;66.41;97696.06;10173887;29;20051;-76
2023/01/17 16:18:35;;;;;;;24.10;10.68;;;;;;;1.62;66.92;97705.69;10166161;29;21184;-76
2023/01/17 16:23:39;;;;;;;21.38;10.50;;;;;;;1.59;67.06;97698.03;10175500;29;20130;-75
2023/01/17 16:28:42;;;;;;;21.33;9.30;;;;;;;1.55;67.30;97712.47;10176296;29;20051;-75
2023/01/17 16:33:49;;;;;;;16.95;8.15;;;;;;;1.52;67.88;97714.56;10171650;29;20514;-77
2023/01/17 16:38:53;;;;;;;18.77;9.35;;;;;;;1.46;68.22;97718.56;10176455;29;20450;-75
2023/01/17 16:43:58;;;;;;;18.08;9.15;;;;;;;1.40;68.37;97724.38;10168073;29;20075;-76
2023/01/17 16:49:01;;;;;;;22.73;11.07;;;;;;;1.36;68.57;97720.31;10179123;29;20059;-78
2023/01/17 16:54:05;;;;;;;24.58;12.93;;;;;;;1.29;68.87;97727.97;10177675;29;20644;-77
2023/01/17 16:59:08;;;;;;;21.48;10.30;;;;;;;1.21;69.11;97725.13;10174341;29;20431;-76
2023/01/17 17:04:12;;;;;;;23.95;10.55;;;;;;;1.17;69.34;97734.28;10170471;29;20052;-77
2023/01/17 17:09:17;;;;;;;22.88;11.98;;;;;;;1.11;69.54;97743.56;10173103;29;20492;-77
2023/01/17 17:14:20;;;;;;;21.85;11.05;;;;;;;1.03;69.46;97738.06;10165935;29;20055;-77
2023/01/17 17:19:23;;;;;;;24.45;9.90;;;;;;;0.95;69.45;97736.06;10172973;29;20054;-78
2023/01/17 17:24:28;;;;;;;20.02;9.82;;;;;;;0.94;69.61;97734.41;10167011;29;20138;-77
2023/01/17 17:29:31;;;;;;;20.90;9.13;;;;;;;0.97;69.89;97743.88;10172308;29;20055;-75
2023/01/17 17:34:35;;;;;;;20.13;9.05;;;;;;;0.94;69.34;97744.97;10172473;29;20178;-76
2023/01/17 17:39:41;;;;;;;20.42;8.95;;;;;;;0.91;69.66;97741.75;10172783;29;20075;-75
2023/01/17 17:44:43;;;;;;;21.33;10.00;;;;;;;0.89;69.22;97741.03;10171781;29;20134;-77
2023/01/17 17:49:46;;;;;;;22.05;9.32;;;;;;;0.83;69.93;97755.59;10172718;29;20055;-76
2023/01/17 17:54:51;;;;;;;19.48;8.70;;;;;;;0.83;69.67;97747.69;10173770;29;20055;-75
2023/01/17 17:59:55;;;;;;;18.88;9.15;;;;;;;0.79;69.76;97748.88;10173111;29;20067;-76
2023/01/17 18:04:58;;;;;;;20.58;9.48;;;;;;;0.77;69.86;97754.31;10169850;29;20051;-78
2023/01/17 18:10:02;;;;;;;25.85;10.43;;;;;;;0.71;70.12;97764.53;10172637;29;20087;-77
2023/01/17 18:15:06;;;;;;;20.95;9.90;;;;;;;0.69;70.33;97774.41;10173039;29;20051;-76
2023/01/17 18:20:10;;;;;;;20.60;8.88;;;;;;;0.64;70.35;97773.94;10172829;29;20086;-76
2023/01/17 18:25:16;;;;;;;21.13;11.00;;;;;;;0.58;70.84;97768.19;10171391;29;20051;-78
2023/01/17 18:30:19;;;;;;;25.17;10.57;;;;;;;0.47;71.08;97776.16;10163583;29;21450;-77
2023/01/17 18:35:22;;;;;;;18.27;9.77;;;;;;;0.48;71.07;97783.09;10166828;29;20430;-76
2023/01/17 18:40:26;;;;;;;28.65;9.68;;;;;;;0.48;71.09;97790.19;10167537;29;20538;-78
2023/01/17 18:45:29;;;;;;;20.42;10.05;;;;;;;0.43;71.20;97798.47;10179411;29;20099;-78
2023/01/17 18:50:31;;;;;;;21.85;11.82;;;;;;;0.38;71.44;97805.91;10179326;29;20043;-77
2023/01/17 18:55:37;;;;;;;26.73;11.90;;;;;;;0.31;71.56;97810.84;10180959;29;20055;-77
2023/01/17 19:00:40;;;;;;;25.02;11.02;;;;;;;0.26;71.66;97815.66;10191607;29;21212;-76
2023/01/17 19:05:42;;;;;;;29.50;10.35;;;;;;;0.22;71.45;97808.97;10190096;29;20055;-76
2023/01/17 19:10:47;;;;;;;20.25;9.93;;;;;;;0.17;71.80;97811.13;10186758;29;20138;-76
2023/01/17 19:15:50;;;;;;;19.00;10.18;;;;;;;0.15;71.80;97815.69;10175942;29;20056;-76
2023/01/17 19:20:53;;;;;;;17.27;8.95;;;;;;;0.11;71.68;97814.22;10180476;29;20516;-78
2023/01/17 19:25:58;;;;;;;14.73;8.40;;;;;;;0.20;71.22;97815.31;10180550;29;20155;-77
2023/01/17 19:31:03;;;;;;;18.13;9.23;;;;;;;0.17;70.97;97814.59;10156117;29;20055;-75
2023/01/17 19:36:09;;;;;;;21.85;9.23;;;;;;;0.15;71.32;97832.34;10156514;29;20056;-78
2023/01/17 19:41:15;;;;;;;19.83;8.52;;;;;;;0.06;71.21;97833.09;10179756;29;20055;-76
2023/01/17 19:46:18;;;;;;;21.35;9.90;;;;;;;0.03;71.70;97841.25;10174679;29;20063;-76
2023/01/17 19:51:22;;;;;;;25.05;9.95;;;;;;;0.07;71.25;97837.38;10181352;29;20050;-76
2023/01/17 19:56:26;;;;;;;19.27;9.98;;;;;;;0.09;71.13;97837.28;10180401;29;20051;-78
2023/01/17 20:01:31;;;;;;;17.10;9.77;;;;;;;0.07;71.36;97841.84;10179970;29;20055;-77
2023/01/17 20:06:35;;;;;;;26.38;9.57;;;;;;;0.03;71.26;97843.88;10180760;29;20058;-76
2023/01/17 20:11:41;;;;;;;25.27;10.32;;;;;;;0.05;71.20;97843.75;10176506;29;20048;-76
2023/01/17 20:16:46;;;;;;;20.75;10.30;;;;;;;0.02;71.29;97852.75;10179760;29;20051;-77
2023/01/17 20:21:49;;;;;;;16.33;10.23;;;;;;;-0.11;70.99;97859.94;10177957;29;20131;-76
2023/01/17 20:26:56;;;;;;;26.40;13.95;;;;;;;-0.30;71.53;97865.81;10179703;29;20091;-76
2023/01/17 20:31:59;;;;;;;28.65;14.60;;;;;;;-0.58;71.80;97873.16;10158130;29;20056;-77
2023/01/17 20:37:02;;;;;;;33.70;14.60;;;;;;;-0.67;72.02;97879.13;10174835;29;20095;-77
2023/01/17 20:42:06;;;;;;;22.15;11.95;;;;;;;-0.64;72.97;97886.78;10137196;29;20051;-77
2023/01/17 20:47:09;;;;;;;27.60;12.23;;;;;;;-0.58;72.57;97881.06;10160411;29;20183;-76
2023/01/17 20:52:13;;;;;;;23.40;11.57;;;;;;;-0.58;72.83;97880.22;10150078;29;20054;-75
2023/01/17 20:57:18;;;;;;;26.58;11.25;;;;;;;-0.52;72.67;97887.69;10173860;29;20062;-75
2023/01/17 21:02:21;;;;;;;23.17;11.50;;;;;;;-0.41;72.53;97897.41;10174989;29;20060;-75
2023/01/17 21:07:24;;;;;;;27.35;11.82;;;;;;;-0.39;72.21;97891.06;10175182;29;20055;-75
2023/01/17 21:12:29;;;;;;;26.38;12.13;;;;;;;-0.39;72.29;97901.59;10178929;29;20057;-75
2023/01/17 21:17:33;;;;;;;24.98;10.77;;;;;;;-0.31;72.45;97893.97;10175977;29;20061;-75
2023/01/17 21:22:36;;;;;;;21.33;11.63;;;;;;;-0.37;72.10;97898.88;10169114;29;20139;-76
2023/01/17 21:27:40;;;;;;;23.70;10.38;;;;;;;-0.37;72.34;97893.59;10187596;29;20157;-76
2023/01/17 21:32:43;;;;;;;26.10;11.43;;;;;;;-0.39;72.38;97898.13;10155463;29;20093;-76
2023/01/17 21:43:17;;;;;;;21.60;10.18;;;;;;;-0.14;71.66;97899.75;10399881;23;20114;-80
2023/01/17 21:48:20;;;;;;;19.45;10.13;;;;;;;-0.18;71.17;97904.44;10204930;29;20055;-80
2023/01/17 21:53:23;;;;;;;20.35;10.48;;;;;;;-0.20;71.32;97916.88;10207331;29;20495;-79
2023/01/17 21:58:47;;;;;;;21.48;9.73;;;;;;;-0.23;71.59;97911.00;10201167;29;20103;-78
2023/01/17 22:03:52;;;;;;;18.85;10.30;;;;;;;-0.23;71.41;97924.22;10208095;29;20051;-80
2023/01/17 22:08:55;;;;;;;25.45;10.70;;;;;;;-0.32;71.96;97926.59;10201304;29;20072;-79
2023/01/17 22:14:01;;;;;;;17.83;9.85;;;;;;;-0.33;71.82;97935.47;10194328;29;20419;-79
2023/01/17 22:19:04;;;;;;;20.15;11.10;;;;;;;-0.37;72.06;97935.78;10207815;29;20099;-78
2023/01/17 22:24:08;;;;;;;23.95;10.73;;;;;;;-0.41;72.19;97931.69;10203037;29;20103;-77
2023/01/17 22:29:15;;;;;;;27.73;11.50;;;;;;;-0.50;72.25;97939.34;10203134;29;20075;-79
2023/01/17 22:34:18;;;;;;;25.25;12.25;;;;;;;-0.52;72.19;97943.91;10186404;29;20092;-77
2023/01/17 22:39:21;;;;;;;26.90;13.60;;;;;;;-0.58;72.23;97951.41;10199362;29;20100;-78
2023/01/17 22:44:25;;;;;;;40.50;16.05;;;;;;;-0.69;72.46;97951.38;10199398;29;20161;-76
2023/01/17 22:49:28;;;;;;;33.10;14.13;;;;;;;-0.83;73.11;97955.00;10172843;29;20036;-79
2023/01/17 22:54:31;;;;;;;28.40;12.05;;;;;;;-0.69;73.11;97954.84;10172361;29;20404;-77
2023/01/17 22:59:35;;;;;;;29.15;11.88;;;;;;;-0.59;72.58;97965.56;10172434;29;20113;-76
2023/01/17 23:04:38;;;;;;;24.35;11.85;;;;;;;-0.58;72.27;97962.78;10172100;29;20144;-77
2023/01/17 23:09:41;;;;;;;26.38;12.05;;;;;;;-0.62;72.41;97964.00;10196406;29;20055;-78
2023/01/17 23:20:07;;;;;;;32.93;14.83;;;;;;;-0.72;71.86;97976.16;10186602;29;20123;-79
2023/01/17 23:25:12;;;;;;;30.58;14.75;;;;;;;-0.85;72.30;97980.63;10186139;29;20280;-77
2023/01/17 23:30:19;;;;;;;33.40;15.43;;;;;;;-1.03;72.27;97983.66;10193051;29;20123;-78
2023/01/17 23:35:25;;;;;;;32.05;16.08;;;;;;;-1.15;72.71;97981.03;10214739;29;20048;-77
2023/01/17 23:40:28;;;;;;;30.15;16.08;;;;;;;-1.30;73.30;97983.81;10179068;29;20132;-77
2023/01/17 23:45:35;;;;;;;31.25;15.82;;;;;;;-1.35;73.53;97987.72;10178792;29;20443;-78
2023/01/17 23:50:40;;;;;;;30.83;16.13;;;;;;;-1.47;73.69;97984.16;10203443;29;20040;-76
2023/01/17 23:55:44;;;;;;;30.65;14.82;;;;;;;-1.51;73.69;97978.28;10177440;29;20050;-76
